createdAt,value
2023-03-29T00:00:32.572Z,101923.78
2023-03-29T00:03:02.670Z,101915.94
2023-03-29T00:05:34.014Z,101914.34
2023-03-29T00:08:04.392Z,101913.38
2023-03-29T00:10:33.973Z,101912.50
2023-03-29T00:13:02.051Z,101907.34
2023-03-29T00:15:29.728Z,101918.13
2023-03-29T00:17:57.534Z,101916.94
2023-03-29T00:20:25.547Z,101920.19
2023-03-29T00:22:53.257Z,101927.06
2023-03-29T00:25:20.997Z,101928.59
2023-03-29T00:27:50.291Z,101926.94
2023-03-29T00:30:18.233Z,101926.84
2023-03-29T00:32:46.020Z,101929.31
2023-03-29T00:35:13.847Z,101929.34
2023-03-29T00:37:41.869Z,101927.38
2023-03-29T00:40:12.808Z,101920.59
2023-03-29T00:42:40.554Z,101912.78
2023-03-29T00:45:19.079Z,101914.38
2023-03-29T00:47:49.874Z,101916.09
2023-03-29T00:50:20.182Z,101927.16
2023-03-29T00:52:50.655Z,101922.91
2023-03-29T00:55:21.784Z,101925.19
2023-03-29T00:57:49.624Z,101930.56
2023-03-29T01:00:20.966Z,101940.16
2023-03-29T01:02:54.239Z,101933.31
2023-03-29T01:05:24.539Z,101940.09
2023-03-29T01:07:57.969Z,101931.44
2023-03-29T01:10:28.675Z,101933.13
2023-03-29T01:13:00.326Z,101924.03
2023-03-29T01:15:29.880Z,101922.22
2023-03-29T01:17:58.474Z,101924.94
2023-03-29T01:20:33.220Z,101918.47
2023-03-29T01:23:08.392Z,101925.44
2023-03-29T01:25:41.372Z,101927.50
2023-03-29T01:28:12.036Z,101926.56
2023-03-29T01:30:43.193Z,101927.47
2023-03-29T01:33:21.231Z,101938.47
2023-03-29T01:35:52.142Z,101932.31
2023-03-29T01:38:22.789Z,101933.16
2023-03-29T01:40:50.450Z,101933.19
2023-03-29T01:43:23.623Z,101919.97
2023-03-29T01:45:54.602Z,101915.44
2023-03-29T01:48:26.868Z,101911.44
2023-03-29T01:50:56.120Z,101909.09
2023-03-29T01:53:27.328Z,101916.31
2023-03-29T01:55:56.801Z,101920.28
2023-03-29T01:58:28.386Z,101924.97
2023-03-29T02:00:56.342Z,101924.38
2023-03-29T02:03:25.208Z,101921.13
2023-03-29T02:05:53.525Z,101908.97
2023-03-29T02:08:23.119Z,101915.97
2023-03-29T02:10:52.534Z,101909.63
2023-03-29T02:13:20.638Z,101918.44
2023-03-29T02:15:49.704Z,101921.88
2023-03-29T02:18:18.619Z,101913.25
2023-03-29T02:20:48.618Z,101905.09
2023-03-29T02:23:18.122Z,101903.66
2023-03-29T02:25:47.117Z,101894.44
2023-03-29T02:28:15.367Z,101892.78
2023-03-29T02:30:45.293Z,101894.16
2023-03-29T02:33:16.429Z,101884.38
2023-03-29T02:35:48.505Z,101891.53
2023-03-29T02:38:17.333Z,101896.19
2023-03-29T02:40:46.788Z,101899.88
2023-03-29T02:43:16.647Z,101898.22
2023-03-29T02:45:45.291Z,101888.91
2023-03-29T02:48:17.198Z,101889.19
2023-03-29T02:50:47.152Z,101888.59
2023-03-29T02:53:18.088Z,101891.59
2023-03-29T02:55:46.958Z,101885.72
2023-03-29T02:58:15.493Z,101889.59
2023-03-29T03:00:44.887Z,101892.84
2023-03-29T03:03:15.613Z,101886.88
2023-03-29T03:05:43.549Z,101890.00
2023-03-29T03:08:11.474Z,101888.06
2023-03-29T03:10:39.896Z,101888.78
2023-03-29T03:13:07.572Z,101886.66
2023-03-29T03:15:35.834Z,101885.38
2023-03-29T03:18:04.515Z,101884.50
2023-03-29T03:20:33.599Z,101874.41
2023-03-29T03:23:03.303Z,101873.31
2023-03-29T03:25:31.704Z,101870.00
2023-03-29T03:27:59.502Z,101869.84
2023-03-29T03:30:29.359Z,101872.53
2023-03-29T03:32:57.162Z,101872.59
2023-03-29T03:35:25.311Z,101877.78
2023-03-29T03:37:54.389Z,101872.13
2023-03-29T03:40:22.120Z,101875.47
2023-03-29T03:42:49.790Z,101866.78
2023-03-29T03:45:17.583Z,101870.84
2023-03-29T03:47:45.562Z,101873.41
2023-03-29T03:50:13.792Z,101880.00
2023-03-29T03:52:41.408Z,101876.66
2023-03-29T03:55:10.858Z,101879.25
2023-03-29T03:57:38.545Z,101870.41
2023-03-29T04:00:19.429Z,101873.94
2023-03-29T04:02:48.356Z,101873.94
2023-03-29T04:05:16.405Z,101868.97
2023-03-29T04:07:44.170Z,101867.53
2023-03-29T04:10:13.303Z,101865.22
2023-03-29T04:12:41.072Z,101870.38
2023-03-29T04:15:10.525Z,101872.75
2023-03-29T04:17:38.715Z,101871.31
2023-03-29T04:20:11.623Z,101878.75
2023-03-29T04:22:39.417Z,101866.91
2023-03-29T04:25:08.230Z,101866.31
2023-03-29T04:27:39.609Z,101860.31
2023-03-29T04:30:08.246Z,101860.38
2023-03-29T04:32:36.345Z,101856.97
2023-03-29T04:35:04.840Z,101862.03
2023-03-29T04:37:32.956Z,101855.03
2023-03-29T04:40:01.393Z,101861.84
2023-03-29T04:42:29.427Z,101861.97
2023-03-29T04:44:58.593Z,101862.28
2023-03-29T04:47:30.119Z,101870.88
2023-03-29T04:49:58.052Z,101865.38
2023-03-29T04:52:26.120Z,101876.53
2023-03-29T04:54:53.832Z,101876.75
2023-03-29T04:57:21.515Z,101877.63
2023-03-29T04:59:49.215Z,101873.34
2023-03-29T05:02:18.293Z,101873.84
2023-03-29T05:04:46.032Z,101880.97
2023-03-29T05:07:15.576Z,101876.06
2023-03-29T05:09:43.721Z,101884.91
2023-03-29T05:12:11.628Z,101880.00
2023-03-29T05:14:39.240Z,101870.84
2023-03-29T05:17:06.946Z,101872.47
2023-03-29T05:19:36.550Z,101876.00
2023-03-29T05:22:04.162Z,101862.72
2023-03-29T05:24:31.837Z,101865.50
2023-03-29T05:26:59.654Z,101854.63
2023-03-29T05:29:27.399Z,101864.69
2023-03-29T05:31:55.373Z,101865.78
2023-03-29T05:34:23.151Z,101853.94
2023-03-29T05:36:52.367Z,101861.84
2023-03-29T05:39:21.127Z,101862.13
2023-03-29T05:41:48.860Z,101863.19
2023-03-29T05:44:16.941Z,101865.09
2023-03-29T05:46:44.554Z,101866.78
2023-03-29T05:49:12.413Z,101865.50
2023-03-29T05:51:42.084Z,101855.03
2023-03-29T05:54:11.584Z,101856.22
2023-03-29T05:56:39.328Z,101857.56
2023-03-29T05:59:08.438Z,101857.94
2023-03-29T06:01:36.734Z,101853.75
2023-03-29T06:04:06.162Z,101849.03
2023-03-29T06:06:33.989Z,101849.25
2023-03-29T06:09:01.658Z,101846.97
2023-03-29T06:11:30.635Z,101846.22
2023-03-29T06:13:58.556Z,101842.06
2023-03-29T06:16:26.285Z,101846.47
2023-03-29T06:18:54.226Z,101849.25
2023-03-29T06:21:22.319Z,101834.31
2023-03-29T06:23:50.395Z,101844.63
2023-03-29T06:26:18.978Z,101843.78
2023-03-29T06:28:51.362Z,101843.59
2023-03-29T06:31:20.008Z,101836.97
2023-03-29T06:33:47.812Z,101833.13
2023-03-29T06:36:16.728Z,101829.22
2023-03-29T06:38:46.006Z,101829.53
2023-03-29T06:41:13.682Z,101829.06
2023-03-29T06:43:41.987Z,101828.66
2023-03-29T06:46:12.279Z,101826.56
2023-03-29T06:48:40.305Z,101821.38
2023-03-29T06:51:08.640Z,101828.81
2023-03-29T06:53:36.742Z,101823.66
2023-03-29T06:56:09.386Z,101821.91
2023-03-29T06:58:37.351Z,101820.78
2023-03-29T07:01:05.565Z,101824.22
2023-03-29T07:03:36.341Z,101823.91
2023-03-29T07:06:09.851Z,101818.75
2023-03-29T07:08:43.372Z,101819.66
2023-03-29T07:11:12.593Z,101813.09
2023-03-29T07:13:42.461Z,101818.44
2023-03-29T07:16:12.756Z,101812.63
2023-03-29T07:18:42.940Z,101818.47
2023-03-29T07:21:11.657Z,101815.16
2023-03-29T07:23:39.300Z,101816.19
2023-03-29T07:26:08.099Z,101813.81
2023-03-29T07:28:37.497Z,101820.00
2023-03-29T07:31:06.849Z,101815.94
2023-03-29T07:33:35.230Z,101814.34
2023-03-29T07:36:04.898Z,101807.63
2023-03-29T07:38:32.851Z,101811.97
2023-03-29T07:41:00.830Z,101803.53
2023-03-29T07:43:29.093Z,101808.75
2023-03-29T07:45:59.053Z,101802.03
2023-03-29T07:48:26.939Z,101802.09
2023-03-29T07:50:54.550Z,101794.59
2023-03-29T07:53:23.789Z,101798.16
2023-03-29T07:55:54.424Z,101796.53
2023-03-29T07:58:22.575Z,101789.72
2023-03-29T08:00:50.748Z,101793.13
2023-03-29T08:03:18.654Z,101794.88
2023-03-29T08:05:46.397Z,101788.16
2023-03-29T08:08:14.218Z,101792.44
2023-03-29T08:10:44.611Z,101789.94
2023-03-29T08:13:12.596Z,101784.06
2023-03-29T08:15:42.188Z,101786.63
2023-03-29T08:18:10.006Z,101790.91
2023-03-29T08:20:37.739Z,101792.69
2023-03-29T08:23:06.457Z,101791.84
2023-03-29T08:25:35.175Z,101787.56
2023-03-29T08:28:04.404Z,101785.03
2023-03-29T08:30:32.159Z,101778.22
2023-03-29T08:32:59.854Z,101771.41
2023-03-29T08:35:27.689Z,101783.34
2023-03-29T08:37:55.293Z,101779.06
2023-03-29T08:40:26.367Z,101785.06
2023-03-29T08:43:07.103Z,101783.34
2023-03-29T08:45:38.492Z,101779.03
2023-03-29T08:48:12.440Z,101775.56
2023-03-29T08:50:41.990Z,101773.88
2023-03-29T08:53:13.864Z,101783.22
2023-03-29T08:55:42.949Z,101782.41
2023-03-29T08:58:15.697Z,101779.00
2023-03-29T09:00:45.143Z,101777.28
2023-03-29T09:03:17.944Z,101773.88
2023-03-29T09:05:47.474Z,101773.88
2023-03-29T09:08:17.503Z,101772.94
2023-03-29T09:10:47.350Z,101771.19
2023-03-29T09:13:22.513Z,101762.56
2023-03-29T09:15:56.105Z,101765.03
2023-03-29T09:18:27.628Z,101764.09
2023-03-29T09:20:58.153Z,101761.47
2023-03-29T09:23:44.439Z,101762.28
2023-03-29T09:26:15.793Z,101754.44
2023-03-29T09:28:48.518Z,101762.94
2023-03-29T09:31:16.809Z,101753.50
2023-03-29T09:33:47.782Z,101749.19
2023-03-29T09:36:18.429Z,101753.44
2023-03-29T09:38:49.072Z,101754.25
2023-03-29T09:41:21.789Z,101762.75
2023-03-29T09:43:51.820Z,101760.13
2023-03-29T09:46:23.858Z,101760.03
2023-03-29T09:48:52.033Z,101747.94
2023-03-29T09:51:22.707Z,101746.19
2023-03-29T09:53:50.589Z,101742.66
2023-03-29T09:56:19.071Z,101746.00
2023-03-29T09:58:47.660Z,101754.56
2023-03-29T10:01:18.922Z,101751.06
2023-03-29T10:03:49.045Z,101742.44
2023-03-29T10:06:17.534Z,101744.06
2023-03-29T10:08:47.728Z,101742.22
2023-03-29T10:11:22.083Z,101750.75
2023-03-29T10:13:51.419Z,101742.91
2023-03-29T10:16:21.768Z,101739.44
2023-03-29T10:18:50.263Z,101737.75
2023-03-29T10:21:20.180Z,101739.44
2023-03-29T10:23:48.478Z,101739.41
2023-03-29T10:26:23.882Z,101741.09
2023-03-29T10:28:54.212Z,101729.91
2023-03-29T10:31:24.061Z,101734.13
2023-03-29T10:33:53.328Z,101729.66
2023-03-29T10:36:22.656Z,101732.19
2023-03-29T10:38:51.302Z,101737.31
2023-03-29T10:41:20.363Z,101736.34
2023-03-29T10:43:50.849Z,101731.94
2023-03-29T10:46:23.115Z,101728.44
2023-03-29T10:48:53.142Z,101725.78
2023-03-29T10:51:21.136Z,101730.09
2023-03-29T10:53:49.082Z,101723.22
2023-03-29T10:56:28.003Z,101727.50
2023-03-29T10:59:10.129Z,101720.44
2023-03-29T11:01:42.564Z,101721.19
2023-03-29T11:04:19.492Z,101714.16
2023-03-29T11:06:48.759Z,101717.44
2023-03-29T11:09:22.806Z,101707.84
2023-03-29T11:12:15.613Z,101719.06
2023-03-29T11:14:48.870Z,101716.44
2023-03-29T11:17:26.721Z,101714.66
2023-03-29T11:20:05.197Z,101712.06
2023-03-29T11:22:41.440Z,101712.97
2023-03-29T11:25:15.893Z,101708.63
2023-03-29T11:27:46.836Z,101708.69
2023-03-29T11:30:19.868Z,101707.81
2023-03-29T11:32:53.391Z,101698.22
2023-03-29T11:35:32.429Z,101703.38
2023-03-29T11:38:03.239Z,101705.03
2023-03-29T11:40:36.689Z,101712.03
2023-03-29T11:43:07.145Z,101712.72
2023-03-29T11:45:37.484Z,101710.16
2023-03-29T11:48:07.838Z,101714.47
2023-03-29T11:50:42.171Z,101712.06
2023-03-29T11:53:12.716Z,101709.44
2023-03-29T11:55:41.441Z,101709.53
2023-03-29T11:58:14.267Z,101715.44
2023-03-29T12:00:44.877Z,101714.69
2023-03-29T12:03:14.943Z,101712.88
2023-03-29T12:05:46.896Z,101710.41
2023-03-29T12:08:17.068Z,101712.94
2023-03-29T12:10:47.228Z,101712.31
2023-03-29T12:13:18.191Z,101718.28
2023-03-29T12:15:49.363Z,101716.72
2023-03-29T12:18:18.955Z,101712.25
2023-03-29T12:20:49.711Z,101713.84
2023-03-29T12:23:17.843Z,101716.34
2023-03-29T12:25:52.319Z,101709.44
2023-03-29T12:28:28.484Z,101710.22
2023-03-29T12:31:02.864Z,101711.84
2023-03-29T12:33:42.081Z,101706.72
2023-03-29T12:36:17.485Z,101711.03
2023-03-29T12:38:48.105Z,101703.19
2023-03-29T12:41:19.023Z,101700.63
2023-03-29T12:43:48.125Z,101702.22
2023-03-29T12:46:18.305Z,101700.69
2023-03-29T12:48:47.666Z,101697.41
2023-03-29T12:51:17.970Z,101703.41
2023-03-29T12:53:47.087Z,101698.34
2023-03-29T12:56:16.196Z,101698.41
2023-03-29T12:58:51.224Z,101701.75
2023-03-29T13:01:27.474Z,101696.91
2023-03-29T13:03:58.397Z,101690.97
2023-03-29T13:06:33.026Z,101698.69
2023-03-29T13:09:02.013Z,101691.81
2023-03-29T13:11:33.808Z,101689.25
2023-03-29T13:14:03.200Z,101698.69
2023-03-29T13:16:34.416Z,101696.94
2023-03-29T13:19:08.792Z,101695.19
2023-03-29T13:21:42.072Z,101689.00
2023-03-29T13:24:22.347Z,101686.38
2023-03-29T13:26:54.909Z,101692.25
2023-03-29T13:29:41.535Z,101693.94
2023-03-29T13:32:20.458Z,101685.47
2023-03-29T13:34:51.608Z,101687.78
2023-03-29T13:37:29.900Z,101683.34
2023-03-29T13:39:57.696Z,101684.09
2023-03-29T13:42:26.191Z,101677.38
2023-03-29T13:44:54.288Z,101678.41
2023-03-29T13:47:43.165Z,101677.59
2023-03-29T13:50:17.846Z,101675.03
2023-03-29T13:52:53.968Z,101671.00
2023-03-29T13:55:25.140Z,101667.72
2023-03-29T13:57:56.818Z,101666.19
2023-03-29T14:00:26.978Z,101668.06
2023-03-29T14:02:56.302Z,101668.16
2023-03-29T14:05:26.481Z,101660.59
2023-03-29T14:07:56.396Z,101656.34
2023-03-29T14:10:26.777Z,101654.69
2023-03-29T14:12:55.615Z,101657.28
2023-03-29T14:15:24.684Z,101659.91
2023-03-29T14:17:58.962Z,101650.50
2023-03-29T14:20:28.807Z,101648.22
2023-03-29T14:22:57.939Z,101654.44
2023-03-29T14:25:25.744Z,101646.84
2023-03-29T14:27:53.470Z,101648.63
2023-03-29T14:30:23.181Z,101640.91
2023-03-29T14:32:52.436Z,101634.97
2023-03-29T14:35:20.862Z,101637.56
2023-03-29T14:37:49.245Z,101634.13
2023-03-29T14:40:19.391Z,101637.66
2023-03-29T14:42:48.255Z,101628.16
2023-03-29T14:45:17.696Z,101635.94
2023-03-29T14:47:46.397Z,101639.47
2023-03-29T14:50:19.050Z,101627.56
2023-03-29T14:52:49.234Z,101625.78
2023-03-29T14:55:23.747Z,101626.72
2023-03-29T14:57:52.886Z,101625.81
2023-03-29T15:00:24.468Z,101622.44
2023-03-29T15:02:55.222Z,101622.47
2023-03-29T15:05:25.620Z,101628.50
2023-03-29T15:07:56.252Z,101629.34
2023-03-29T15:10:25.889Z,101618.22
2023-03-29T15:12:54.759Z,101619.06
2023-03-29T15:15:24.916Z,101629.38
2023-03-29T15:17:57.158Z,101626.84
2023-03-29T15:20:26.914Z,101622.59
2023-03-29T15:22:57.021Z,101623.50
2023-03-29T15:25:27.787Z,101625.19
2023-03-29T15:27:57.970Z,101617.50
2023-03-29T15:30:34.424Z,101618.38
2023-03-29T15:33:15.170Z,101610.66
2023-03-29T15:35:43.701Z,101619.19
2023-03-29T15:38:12.012Z,101616.56
2023-03-29T15:40:41.166Z,101611.44
2023-03-29T15:43:08.848Z,101616.53
2023-03-29T15:45:36.701Z,101611.47
2023-03-29T15:48:10.116Z,101610.56
2023-03-29T15:50:37.747Z,101608.00
2023-03-29T15:53:14.809Z,101620.88
2023-03-29T15:55:46.322Z,101615.75
2023-03-29T15:58:15.220Z,101614.03
2023-03-29T16:00:44.501Z,101613.28
2023-03-29T16:03:14.792Z,101603.06
2023-03-29T16:05:42.912Z,101615.09
2023-03-29T16:08:11.249Z,101609.16
2023-03-29T16:10:39.075Z,101608.38
2023-03-29T16:13:08.167Z,101599.00
2023-03-29T16:15:36.862Z,101598.25
2023-03-29T16:18:04.752Z,101605.16
2023-03-29T16:20:32.506Z,101599.22
2023-03-29T16:23:00.212Z,101592.38
2023-03-29T16:25:28.890Z,101595.84
2023-03-29T16:27:56.579Z,101596.78
2023-03-29T16:30:25.783Z,101597.66
2023-03-29T16:32:53.422Z,101607.97
2023-03-29T16:35:22.873Z,101603.75
2023-03-29T16:37:50.580Z,101609.78
2023-03-29T16:40:18.373Z,101604.69
2023-03-29T16:42:46.035Z,101598.72
2023-03-29T16:45:14.398Z,101599.56
2023-03-29T16:47:44.778Z,101601.25
2023-03-29T16:50:13.308Z,101602.16
2023-03-29T16:52:41.638Z,101601.25
2023-03-29T16:55:12.137Z,101602.09
2023-03-29T16:57:40.760Z,101597.78
2023-03-29T17:00:10.837Z,101584.16
2023-03-29T17:02:38.675Z,101584.16
2023-03-29T17:05:08.036Z,101592.75
2023-03-29T17:07:36.074Z,101601.28
2023-03-29T17:10:04.800Z,101599.59
2023-03-29T17:12:32.453Z,101603.91
2023-03-29T17:15:00.441Z,101611.69
2023-03-29T17:17:28.174Z,101607.47
2023-03-29T17:19:56.187Z,101609.25
2023-03-29T17:22:25.473Z,101606.75
2023-03-29T17:24:53.306Z,101610.25
2023-03-29T17:27:21.041Z,101621.44
2023-03-29T17:29:48.741Z,101619.75
2023-03-29T17:32:16.460Z,101618.94
2023-03-29T17:34:44.136Z,101629.31
2023-03-29T17:37:11.792Z,101621.66
2023-03-29T17:39:42.108Z,101633.59
2023-03-29T17:42:11.662Z,101631.03
2023-03-29T17:44:39.426Z,101633.66
2023-03-29T17:47:07.240Z,101626.00
2023-03-29T17:49:35.107Z,101627.75
2023-03-29T17:52:02.788Z,101628.66
2023-03-29T17:54:30.603Z,101629.53
2023-03-29T17:56:59.686Z,101635.56
2023-03-29T17:59:27.425Z,101631.31
2023-03-29T18:01:55.189Z,101632.16
2023-03-29T18:04:22.985Z,101626.22
2023-03-29T18:06:50.668Z,101626.22
2023-03-29T18:09:18.344Z,101628.78
2023-03-29T18:11:46.125Z,101625.41
2023-03-29T18:14:15.258Z,101639.09
2023-03-29T18:16:43.119Z,101635.69
2023-03-29T18:19:11.002Z,101637.41
2023-03-29T18:21:38.741Z,101640.78
2023-03-29T18:24:06.500Z,101637.44
2023-03-29T18:26:34.136Z,101640.84
2023-03-29T18:29:01.901Z,101640.84
2023-03-29T18:31:30.986Z,101640.06
2023-03-29T18:33:58.892Z,101641.75
2023-03-29T18:36:26.768Z,101649.44
2023-03-29T18:38:55.990Z,101644.31
2023-03-29T18:41:24.606Z,101647.75
2023-03-29T18:43:52.307Z,101639.22
2023-03-29T18:46:19.955Z,101647.75
2023-03-29T18:48:49.186Z,101635.84
2023-03-29T18:51:16.829Z,101640.09
2023-03-29T18:53:44.579Z,101634.97
2023-03-29T18:56:12.395Z,101637.53
2023-03-29T18:58:40.055Z,101644.34
2023-03-29T19:01:08.152Z,101638.38
2023-03-29T19:03:36.397Z,101642.63
2023-03-29T19:06:06.677Z,101636.66
2023-03-29T19:08:36.681Z,101639.22
2023-03-29T19:11:05.539Z,101634.94
2023-03-29T19:13:33.301Z,101635.78
2023-03-29T19:16:01.239Z,101640.88
2023-03-29T19:18:29.311Z,101634.91
2023-03-29T19:20:57.022Z,101633.16
2023-03-29T19:23:28.249Z,101644.22
2023-03-29T19:25:56.758Z,101644.19
2023-03-29T19:28:24.921Z,101644.22
2023-03-29T19:30:52.931Z,101645.06
2023-03-29T19:33:20.885Z,101652.66
2023-03-29T19:35:50.487Z,101652.66
2023-03-29T19:38:18.186Z,101643.28
2023-03-29T19:40:47.370Z,101650.94
2023-03-29T19:43:16.786Z,101645.81
2023-03-29T19:45:44.716Z,101646.59
2023-03-29T19:48:21.169Z,101647.41
2023-03-29T19:50:49.835Z,101650.84
2023-03-29T19:53:17.511Z,101646.56
2023-03-29T19:55:45.601Z,101649.97
2023-03-29T19:58:14.756Z,101648.25
2023-03-29T20:00:42.537Z,101648.22
2023-03-29T20:03:10.557Z,101648.22
2023-03-29T20:05:39.512Z,101649.91
2023-03-29T20:08:07.650Z,101644.75
2023-03-29T20:10:35.858Z,101644.72
2023-03-29T20:13:05.734Z,101637.06
2023-03-29T20:15:35.024Z,101641.28
2023-03-29T20:18:03.432Z,101631.03
2023-03-29T20:20:31.762Z,101636.16
2023-03-29T20:23:04.561Z,101628.44
2023-03-29T20:25:32.956Z,101643.66
2023-03-29T20:28:00.700Z,101641.91
2023-03-29T20:30:28.480Z,101636.75
2023-03-29T20:32:57.690Z,101635.91
2023-03-29T20:35:25.718Z,101638.38
2023-03-29T20:37:53.388Z,101640.91
2023-03-29T20:40:21.030Z,101636.66
2023-03-29T20:42:49.057Z,101623.88
2023-03-29T20:45:19.556Z,101627.19
2023-03-29T20:47:57.730Z,101635.56
2023-03-29T20:50:27.437Z,101633.75
2023-03-29T20:52:55.456Z,101632.81
2023-03-29T20:55:23.499Z,101630.16
2023-03-29T20:57:51.346Z,101627.56
2023-03-29T21:00:19.908Z,101638.50
2023-03-29T21:02:47.819Z,101641.03
2023-03-29T21:05:16.221Z,101636.78
2023-03-29T21:07:48.056Z,101631.63
2023-03-29T21:10:15.827Z,101641.78
2023-03-29T21:12:43.531Z,101629.09
2023-03-29T21:15:13.392Z,101633.34
2023-03-29T21:17:41.306Z,101634.06
2023-03-29T21:20:11.149Z,101633.03
2023-03-29T21:22:39.016Z,101627.78
2023-03-29T21:25:10.533Z,101622.47
2023-03-29T21:27:38.542Z,101624.00
2023-03-29T21:30:07.019Z,101623.75
2023-03-29T21:32:34.865Z,101621.84
2023-03-29T21:35:02.636Z,101628.41
2023-03-29T21:37:30.368Z,101635.16
2023-03-29T21:39:58.089Z,101633.31
2023-03-29T21:42:27.089Z,101629.03
2023-03-29T21:44:54.791Z,101634.13
2023-03-29T21:47:22.505Z,101628.16
2023-03-29T21:49:51.068Z,101640.00
2023-03-29T21:52:18.832Z,101643.19
2023-03-29T21:54:46.475Z,101638.00
2023-03-29T21:57:14.270Z,101638.84
2023-03-29T21:59:43.301Z,101642.19
2023-03-29T22:02:11.188Z,101626.88
2023-03-29T22:04:39.091Z,101632.78
2023-03-29T22:07:08.328Z,101630.25
2023-03-29T22:09:36.165Z,101627.72
2023-03-29T22:12:03.967Z,101629.41
2023-03-29T22:14:34.724Z,101614.00
2023-03-29T22:17:05.843Z,101621.41
2023-03-29T22:19:34.562Z,101610.97
2023-03-29T22:22:02.432Z,101611.72
2023-03-29T22:24:30.110Z,101605.00
2023-03-29T22:26:57.700Z,101606.88
2023-03-29T22:29:25.634Z,101610.91
2023-03-29T22:31:53.430Z,101608.53
2023-03-29T22:34:22.678Z,101606.75
2023-03-29T22:36:50.375Z,101611.75
2023-03-29T22:39:17.993Z,101604.94
2023-03-29T22:41:46.001Z,101604.78
2023-03-29T22:44:13.656Z,101610.66
2023-03-29T22:46:41.346Z,101607.25
2023-03-29T22:49:09.057Z,101608.91
2023-03-29T22:51:38.206Z,101613.16
2023-03-29T22:54:06.037Z,101613.13
2023-03-29T22:56:33.714Z,101618.97
2023-03-29T22:59:01.375Z,101615.56
2023-03-29T23:01:29.013Z,101618.13
2023-03-29T23:03:56.737Z,101618.06
2023-03-29T23:06:24.567Z,101622.97
2023-03-29T23:08:53.630Z,101625.88
2023-03-29T23:11:21.597Z,101640.09
2023-03-29T23:13:49.711Z,101633.25
2023-03-29T23:16:20.659Z,101630.44
2023-03-29T23:18:48.512Z,101638.59
2023-03-29T23:21:16.654Z,101637.75
2023-03-29T23:23:44.754Z,101645.94
2023-03-29T23:26:14.064Z,101639.00
2023-03-29T23:28:42.332Z,101637.34
2023-03-29T23:31:11.510Z,101638.03
2023-03-29T23:33:40.406Z,101635.94
2023-03-29T23:36:08.967Z,101640.59
2023-03-29T23:38:37.541Z,101636.84
2023-03-29T23:41:06.545Z,101625.97
2023-03-29T23:43:37.282Z,101636.91
2023-03-29T23:46:07.037Z,101643.78
2023-03-29T23:48:35.028Z,101648.09
2023-03-29T23:51:03.105Z,101643.88
2023-03-29T23:53:32.116Z,101640.31
2023-03-29T23:56:00.601Z,101632.91
2023-03-29T23:58:28.546Z,101625.34
